Les articles d'ExpertMaritime.pro


Votre expert maritime indépendant Xavier Braive est disponible sur la zone de Saujon - Port de Ribérou - 17600

(Charente-Maritime - Poitou-Charentes)


Voir plan
Situation :

Le port de Ribérou est un port de pêche et de plaisance situé au fond de l'estuaire de la Seudre, à Saujon. C'est l'un des deux ports de la ville avec celui du Breuil, un peu en aval.

Actif dès le XIe siècle, il prend son aspect actuel à partir de 1842, sous l'impulsion du ministre des travaux publics de l'époque, Jules Dufaure, " enfant du pays", qui tente ainsi de relancer le commerce maritime et les activités halieutiques, alors en déclin.
Idéalement situé, en marge du centre-ville, de la base de loisirs de La Lande et des espaces préservés des marais de la Seudre (chemins de halage transformés en sentiers de promenade), il est devenu un des hauts lieux du tourisme saujonnais, où sont notamment organisés des soirées thématiques et le feu d'artifice du 14 juillet.

En 2011, le port de Ribérou a été l'objet d'un important programme de rénovation urbaine conduit par l'architecte-urbaniste Sophie Blanchet, complétant des efforts déjà mis en œuvre en centre-ville.
Une partie du site est reconvertie en esplanade piétonne, dotée d'un mobilier urbain contemporain : il se veut une sorte de "trait d'union" entre la base de loisirs de La Lande (piscine, tennis, boulodrome, stade, terrain de basket...), les sentiers de promenade et de découverte des marais de la Seudre, qui débutent au port, et le centre-ville.
L'inauguration du nouveau port a lieu le 18 août 2012, en présence du maire, Pascal Ferchaud, et d'une foule nombreuse venue profiter des animations : concerts, jeux nautiques, joutes, etc.

Aujourd'hui, le port de Ribérou est un petit port de pêche et de plaisance. C'est également une base de départ pour certains sports nautiques (canoë-kayak). Sa longueur est d'environ 250 mètres pour 40 mètres.
Depuis Ribérou, il est possible d'atteindre successivement les ports du Breuil (Saujon), de L'Éguille, de Mornac, de Chaillevette, de Chatressac (Chaillevette), des Grandes Roches et d'Orivol (Étaules), de La Grève à Duret et de Coux (Arvert), de La Grève (La Tremblade) et de La Cayenne (Marennes).


En 2011, la municipalité entame un programme de rénovation du site portuaire, confié à l'architecte-urbaniste Sophie Blanchet. Il consiste en une transformation des anciens parkings en esplanade piétonne, véritable espace de rencontre doté d'un mobilier urbain moderne et à terme, d'espaces verts. Depuis les quais, bordés d'immeubles bourgeois, de petites rues pittoresques et fleuries de roses trémières permettent de sillonner le quartier et de rejoindre le centre-ville.

Le pont à écluse de Ribérou, dit « pont des eaux contraires », a été rénové en 2010. Il marque la séparation entre les eaux de l'estuaire (côté port : eaux saumâtres) et les eaux du fleuve (côté bassin de retenue : eaux douces).



Adresse :

Mairie
1, place Denfert Rochereau
17600 SAUJON

Tél/Fax : 05 46 02 80 07 / 05 46 02 91 92

E-mail : contact@mairie-saujon.fr
Météo locale sur la zone Port de Ribérou
Heure (UTC) Dir.Vent Vit.Vent (nds) Force (Bft) T°min T°max P (mb) Hum.Rel.
22/09/2018 - 15:00:00 au 22/09/2018 - 18:00:00 224° (SW) 10 3 20°C 21°C 1035 82 %
22/09/2018 - 18:00:00 au 22/09/2018 - 21:00:00 231° (SW) 11 4 19°C 20°C 1035 91 %
22/09/2018 - 21:00:00 au 23/09/2018 - 00:00:00 239° (WSW) 11 4 20°C 20°C 1035 94 %
23/09/2018 - 00:00:00 au 23/09/2018 - 03:00:00 237° (WSW) 11 4 20°C 20°C 1034 94 %
23/09/2018 - 03:00:00 au 23/09/2018 - 06:00:00 236° (SW) 12 4 20°C 20°C 1034 94 %
23/09/2018 - 06:00:00 au 23/09/2018 - 09:00:00 242° (WSW) 13 4 21°C 21°C 1034 88 %
23/09/2018 - 09:00:00 au 23/09/2018 - 12:00:00 255° (WSW) 14 4 21°C 21°C 1035 85 %
23/09/2018 - 12:00:00 au 23/09/2018 - 15:00:00 269° (W) 15 4 21°C 21°C 1035 88 %
23/09/2018 - 15:00:00 au 23/09/2018 - 18:00:00 295° (WNW) 14 4 20°C 20°C 1036 93 %
23/09/2018 - 18:00:00 au 23/09/2018 - 21:00:00 010° (N) 17 5 19°C 19°C 1038 92 %
23/09/2018 - 21:00:00 au 24/09/2018 - 00:00:00 031° (NNE) 21 5 16°C 16°C 1042 91 %
24/09/2018 - 00:00:00 au 24/09/2018 - 03:00:00 041° (NE) 20 5 13°C 13°C 1043 100 %
24/09/2018 - 03:00:00 au 24/09/2018 - 06:00:00 047° (NE) 19 5 12°C 12°C 1045 100 %
24/09/2018 - 06:00:00 au 24/09/2018 - 09:00:00 048° (NE) 17 5 13°C 13°C 1046 100 %
24/09/2018 - 09:00:00 au 24/09/2018 - 12:00:00 049° (NE) 17 5 16°C 16°C 1046 87 %
24/09/2018 - 12:00:00 au 24/09/2018 - 15:00:00 051° (NE) 17 5 18°C 18°C 1044 74 %
24/09/2018 - 15:00:00 au 24/09/2018 - 18:00:00 051° (NE) 17 5 17°C 17°C 1044 74 %
24/09/2018 - 18:00:00 au 24/09/2018 - 21:00:00 051° (NE) 17 5 16°C 16°C 1045 84 %
24/09/2018 - 21:00:00 au 25/09/2018 - 00:00:00 057° (ENE) 18 5 15°C 15°C 1046 88 %
25/09/2018 - 00:00:00 au 25/09/2018 - 03:00:00 060° (ENE) 18 5 14°C 14°C 1045 99 %
25/09/2018 - 03:00:00 au 25/09/2018 - 06:00:00 057° (ENE) 18 5 13°C 13°C 1045 100 %
25/09/2018 - 06:00:00 au 25/09/2018 - 09:00:00 058° (ENE) 19 5 14°C 14°C 1045 93 %
25/09/2018 - 09:00:00 au 25/09/2018 - 12:00:00 054° (NE) 18 5 17°C 17°C 1043 75 %
25/09/2018 - 12:00:00 au 25/09/2018 - 15:00:00 058° (ENE) 18 5 19°C 19°C 1041 65 %
25/09/2018 - 15:00:00 au 25/09/2018 - 18:00:00 057° (ENE) 16 4 19°C 19°C 1040 67 %
25/09/2018 - 18:00:00 au 25/09/2018 - 21:00:00 057° (ENE) 16 4 18°C 18°C 1041 72 %
25/09/2018 - 21:00:00 au 26/09/2018 - 00:00:00 088° (E) 11 4 16°C 16°C 1041 83 %
26/09/2018 - 00:00:00 au 26/09/2018 - 03:00:00 101° (E) 11 4 15°C 15°C 1041 89 %
26/09/2018 - 03:00:00 au 26/09/2018 - 06:00:00 118° (ESE) 13 4 15°C 15°C 1041 100 %
26/09/2018 - 06:00:00 au 26/09/2018 - 09:00:00 130° (SE) 13 4 19°C 19°C 1041 79 %
26/09/2018 - 09:00:00 au 26/09/2018 - 12:00:00 120° (ESE) 10 3 23°C 23°C 1041 66 %
26/09/2018 - 12:00:00 au 26/09/2018 - 15:00:00 114° (ESE) 8 3 24°C 24°C 1039 60 %
26/09/2018 - 15:00:00 au 26/09/2018 - 18:00:00 116° (ESE) 6 2 23°C 23°C 1039 62 %
26/09/2018 - 18:00:00 au 26/09/2018 - 21:00:00 127° (SE) 9 3 21°C 21°C 1039 71 %
26/09/2018 - 21:00:00 au 27/09/2018 - 00:00:00 138° (SE) 13 4 20°C 20°C 1040 71 %
27/09/2018 - 00:00:00 au 27/09/2018 - 03:00:00 140° (SE) 13 4 19°C 19°C 1039 74 %
27/09/2018 - 03:00:00 au 27/09/2018 - 06:00:00 133° (SE) 14 4 18°C 18°C 1039 79 %
27/09/2018 - 06:00:00 au 27/09/2018 - 09:00:00 133° (SE) 12 4 20°C 20°C 1038 70 %
27/09/2018 - 09:00:00 au 27/09/2018 - 12:00:00 157° (SSE) 9 3 23°C 23°C 1038 63 %
27/09/2018 - 12:00:00 au 27/09/2018 - 15:00:00 208° (SSW) 8 3 23°C 23°C 1036 65 %
openweathermap
Ces informations sont partiellement extraites de Wikipedia, et des sites pertinents pour cette zone. Compilation d'informations de Xavier Braive.
Xavier Braive, Expert Maritime Plaisance se déplace sur Port de Ribérou, Saujon, 17600, Charente-Maritime

Welcome to Cross-Channel yachtmen !

we can deliver survey reports in english, in case of dammage or prior to buy / sell a boat in France (pre-purchase survey), and more specifically on the Normandy and Atlantic coasts.

Zone Méditerrannée

En partenariat avec le cabinet d'expertise IEM, nous proposons une couverture de la Côte d'Azur.
N'hésitez pas à contacter IEM en cliquant sur www.expert-maritime-cote-dazur.com

Uw onafhankelijk jachtexpert

verkrijkbaar op de Normandie kust, bij aankoop of reparatie van jachten (metaal, polyester of composiet). Rapporten in Nederlands

BRAIVE, Xavier
Xavier Braive
Expert Maritime
Nouvelle Aquitaine
France
06 71 50 20 17